Bellona, New York
Current Conditions -  °F | °C
As of 9:07 AM on Thursday 30 Oct 2014 (Local Time) from KPEO Reporting Station
Overcast Overcast  
Wind Chill: 41°   Ceiling: 2900
Heat Index: 44°   Visibility: 10mi
Dew Point: 35°   Wind: 6mph
Humidity: 71%   Direction: 280°W
Pressure: 30.04"   Gusts: NA
Location:  42.76°N, 77.01°W
Report Text: KPEO 301307Z AUTO 28005KT 10SM FEW022 OVC029 07/02 A3004 RMK AO2 T00670017
Loading
Personal Weather Stations






























Interactive Weather Map
Tropical Storm Tracking
New forecast layout! Learn more

10-Day Weather Forecast

Advertisements
Track Severe Weather on mobile